Time;durP1;ratioP1;P1;durP2;ratioP2;P2;SDS_P1;SDS_P2;PMS_P1;PMS_P2;Temp;Humidity;BMP_temperature;BMP_pressure;BME280_temperature;BME280_humidity;BME280_pressure;Samples;Min_cycle;Max_cycle;Signal;HPM_P1;HPM_P2
2023/05/17 00:01:33;;;;;;;1333.70;160.65;;;9.80;1.00;;;;;;5139865;27;20047;-76
2023/05/17 00:03:59;;;;;;;1817.25;795.88;;;9.70;1.00;;;;;;5115054;27;20047;-76
2023/05/17 00:06:25;;;;;;;1999.90;999.90;;;9.60;1.00;;;;;;5151666;27;20043;-76
2023/05/17 00:08:50;;;;;;;1999.90;999.90;;;9.50;1.00;;;;;;5134182;27;20043;-76
2023/05/17 00:11:16;;;;;;;1727.15;407.02;;;9.50;1.00;;;;;;5157098;27;20043;-76
2023/05/17 00:13:42;;;;;;;1769.22;592.72;;;9.40;1.00;;;;;;5157193;27;20041;-76
2023/05/17 00:16:07;;;;;;;1712.50;398.00;;;9.30;1.00;;;;;;5157692;27;20042;-77
2023/05/17 00:18:33;;;;;;;1783.57;595.97;;;9.20;1.00;;;;;;5136207;27;20036;-76
2023/05/17 00:20:59;;;;;;;1907.18;593.97;;;9.10;1.00;;;;;;5139755;27;20390;-77
2023/05/17 00:23:24;;;;;;;1999.90;999.90;;;9.10;1.00;;;;;;5137731;27;20046;-76
2023/05/17 00:25:50;;;;;;;1899.60;796.63;;;9.00;1.00;;;;;;5157459;27;20364;-76
2023/05/17 00:28:16;;;;;;;1999.90;999.90;;;;;;;;;;5138024;27;20099;-76
2023/05/17 00:30:42;;;;;;;1999.90;999.90;;;8.80;1.00;;;;;;5157332;27;20043;-76
2023/05/17 00:33:07;;;;;;;1780.75;585.33;;;9.00;1.00;;;;;;5157163;27;20046;-76
2023/05/17 00:35:33;;;;;;;1778.45;571.30;;;8.70;1.00;;;;;;5152012;27;20035;-76
2023/05/17 00:37:59;;;;;;;1999.90;999.90;;;8.60;1.00;;;;;;5117139;27;20395;-76
2023/05/17 00:40:24;;;;;;;1569.80;366.70;;;8.60;1.00;;;;;;5156704;27;20084;-76
2023/05/17 00:42:50;;;;;;;1999.90;999.90;;;8.60;1.00;;;;;;5138475;27;20133;-76
2023/05/17 00:45:16;;;;;;;1831.72;577.50;;;8.60;1.00;;;;;;5143215;27;20050;-75
2023/05/17 00:47:41;;;;;;;1999.90;999.90;;;8.60;1.00;;;;;;5129529;27;20045;-76
2023/05/17 00:50:08;;;;;;;1999.90;999.90;;;8.70;1.00;;;;;;5121169;27;20080;-76
2023/05/17 00:52:35;;;;;;;1999.90;410.10;;;8.80;1.00;;;;;;5123975;27;20052;-77
2023/05/17 00:55:01;;;;;;;1999.90;999.90;;;9.20;1.00;;;;;;5118061;27;20058;-76
2023/05/17 00:57:30;;;;;;;1999.90;999.90;;;9.00;1.00;;;;;;5129929;27;20074;-76
2023/05/17 00:59:56;;;;;;;1607.45;567.05;;;9.60;1.00;;;;;;5121416;27;20043;-76
2023/05/17 01:02:22;;;;;;;1999.90;999.90;;;9.20;1.00;;;;;;5135077;27;20043;-76
2023/05/17 01:04:48;;;;;;;1999.90;999.90;;;9.20;1.00;;;;;;5135640;27;20100;-77
2023/05/17 01:07:14;;;;;;;1999.90;999.90;;;9.30;1.00;;;;;;5114554;28;20051;-78
2023/05/17 01:09:41;;;;;;;1545.95;542.90;;;10.10;1.00;;;;;;5114617;28;20476;-76
2023/05/17 01:12:45;;;;;;;1767.60;784.03;;;9.40;1.00;;;;;;5116252;27;20192;-77
2023/05/17 01:15:21;;;;;;;1999.90;999.90;;;9.40;1.00;;;;;;5134813;27;20047;-76
2023/05/17 01:18:34;;;;;;;1999.90;999.90;;;9.40;1.00;;;;;;5127756;27;20095;-76
2023/05/17 01:21:01;;;;;;;1784.18;783.20;;;9.40;1.00;;;;;;5054701;28;20058;-77
2023/05/17 01:23:35;;;;;;;1999.90;999.90;;;9.50;1.00;;;;;;5122197;27;20402;-76
2023/05/17 01:26:12;;;;;;;1999.90;806.42;;;9.50;1.00;;;;;;5134557;27;20062;-76
2023/05/17 01:28:40;;;;;;;1999.90;999.90;;;9.50;1.00;;;;;;5135221;27;20075;-77
2023/05/17 01:31:07;;;;;;;1999.90;999.90;;;9.50;1.00;;;;;;5133096;27;20571;-76
2023/05/17 01:33:34;;;;;;;1999.90;999.90;;;9.50;1.00;;;;;;5135409;27;20050;-76
2023/05/17 01:36:00;;;;;;;1999.90;999.90;;;9.40;1.00;;;;;;5134428;27;20050;-77
2023/05/17 01:38:26;;;;;;;1999.90;999.90;;;9.40;1.00;;;;;;5134510;27;20046;-77
2023/05/17 01:41:05;;;;;;;1999.90;999.90;;;9.30;1.00;;;;;;5117146;27;20046;-76
2023/05/17 01:43:38;;;;;;;1999.90;999.90;;;9.10;1.00;;;;;;5135229;27;20493;-76
2023/05/17 01:46:13;;;;;;;1389.60;165.30;;;9.00;1.00;;;;;;5134673;27;20091;-77
2023/05/17 01:48:48;;;;;;;1999.90;999.90;;;8.90;1.00;;;;;;5132956;27;20057;-76
2023/05/17 01:51:19;;;;;;;1999.90;999.90;;;8.80;1.00;;;;;;5155234;27;20055;-77
2023/05/17 01:53:55;;;;;;;1566.72;567.03;;;8.80;1.00;;;;;;5154953;27;20379;-76
2023/05/17 01:56:28;;;;;;;1825.22;776.47;;;9.00;1.00;;;;;;5148532;27;20406;-76
2023/05/17 01:58:56;;;;;;;1999.90;999.90;;;8.90;1.00;;;;;;5147743;27;20042;-77
2023/05/17 02:01:23;;;;;;;1565.47;558.30;;;8.70;1.00;;;;;;5126707;27;20039;-77
2023/05/17 02:03:49;;;;;;;1572.65;566.38;;;8.70;1.00;;;;;;5146997;27;20042;-77
2023/05/17 02:06:16;;;;;;;1424.68;159.98;;;8.60;1.00;;;;;;5126279;27;20039;-78
2023/05/17 02:08:42;;;;;;;1885.55;787.10;;;8.50;1.00;;;;;;5145905;27;20113;-76
2023/05/17 02:11:07;;;;;;;1999.90;999.90;;;8.40;1.00;;;;;;5149483;27;20552;-76
2023/05/17 02:13:33;;;;;;;1999.90;999.90;;;8.40;1.00;;;;;;5127606;27;20035;-77
2023/05/17 02:16:00;;;;;;;1748.32;561.85;;;8.30;1.00;;;;;;5150245;27;20486;-76
2023/05/17 02:18:26;;;;;;;1922.75;787.72;;;8.30;1.00;;;;;;5146752;27;20079;-77
2023/05/17 02:20:52;;;;;;;1999.90;795.45;;;8.30;1.00;;;;;;5134908;27;20051;-77
2023/05/17 02:23:18;;;;;;;1999.90;812.75;;;8.30;1.00;;;;;;5129317;27;20390;-76
2023/05/17 02:25:44;;;;;;;1999.90;236.32;;;8.30;1.00;;;;;;5125825;27;20039;-79
2023/05/17 02:28:09;;;;;;;1999.90;614.33;;;8.30;1.00;;;;;;5150143;27;20631;-76
2023/05/17 02:30:39;;;;;;;1999.90;804.15;;;8.40;1.00;;;;;;5148020;27;20100;-77
2023/05/17 02:33:05;;;;;;;1999.90;999.90;;;8.30;1.00;;;;;;5127683;27;20125;-76
2023/05/17 02:35:31;;;;;;;1999.90;999.90;;;8.30;1.00;;;;;;5146489;27;20046;-76
2023/05/17 02:37:57;;;;;;;1999.90;999.90;;;8.30;1.00;;;;;;5144259;27;20042;-76
2023/05/17 02:40:23;;;;;;;1999.90;999.90;;;8.50;1.00;;;;;;5129355;27;21287;-78
2023/05/17 02:42:48;;;;;;;1088.07;87.72;;;8.30;1.00;;;;;;5126541;27;20036;-78
2023/05/17 02:45:14;;;;;;;1999.90;999.90;;;8.20;1.00;;;;;;5128725;27;20610;-75
2023/05/17 02:47:40;;;;;;;1999.90;999.90;;;8.10;1.00;;;;;;5148499;27;20035;-75
2023/05/17 02:50:06;;;;;;;1999.90;999.90;;;8.10;1.00;;;;;;5147322;27;20054;-74
2023/05/17 02:52:32;;;;;;;1999.90;999.90;;;8.10;2.00;;;;;;5147836;27;20034;-75
2023/05/17 02:54:57;;;;;;;1537.32;541.67;;;8.10;3.80;;;;;;5109002;27;20038;-76
2023/05/17 02:57:23;;;;;;;1999.90;999.90;;;8.10;3.40;;;;;;5129223;27;20483;-75
2023/05/17 02:59:49;;;;;;;1999.90;999.90;;;8.10;6.00;;;;;;5146274;27;20038;-75
2023/05/17 03:02:15;;;;;;;1614.03;543.03;;;8.20;7.40;;;;;;5147487;27;20486;-76
2023/05/17 03:04:40;;;;;;;1999.90;999.90;;;8.30;5.30;;;;;;5147440;27;20254;-75
2023/05/17 03:07:07;;;;;;;1999.90;999.90;;;8.50;7.60;;;;;;5123654;27;20494;-77
2023/05/17 03:09:32;;;;;;;1999.90;999.90;;;8.60;6.70;;;;;;5145598;27;20138;-75
2023/05/17 03:11:58;;;;;;;1817.05;771.30;;;8.50;7.30;;;;;;5152871;27;20109;-75
2023/05/17 03:14:24;;;;;;;1905.63;564.88;;;8.60;6.10;;;;;;5136069;27;20107;-74
2023/05/17 03:16:49;;;;;;;1999.90;999.90;;;8.60;3.20;;;;;;5146169;27;20047;-78
2023/05/17 03:19:15;;;;;;;1999.90;999.90;;;8.80;2.80;;;;;;5133363;27;20035;-75
2023/05/17 03:21:41;;;;;;;1814.22;566.97;;;9.50;1.80;;;;;;5133680;27;20043;-75
2023/05/17 03:24:06;;;;;;;1999.90;999.90;;;8.70;1.20;;;;;;5132268;27;20468;-75
2023/05/17 03:26:32;;;;;;;1999.90;208.43;;;8.70;1.00;;;;;;5115569;27;20389;-75
2023/05/17 03:28:58;;;;;;;1999.90;999.90;;;8.70;1.00;;;;;;5122424;27;20039;-75
2023/05/17 03:31:24;;;;;;;1999.90;999.90;;;8.80;1.00;;;;;;5136080;27;20089;-75
2023/05/17 03:33:50;;;;;;;1982.85;178.38;;;8.80;1.00;;;;;;5138346;27;20047;-75
2023/05/17 03:36:16;;;;;;;1999.90;999.90;;;8.80;1.00;;;;;;5133120;27;20056;-76
2023/05/17 03:38:41;;;;;;;1999.90;999.90;;;8.70;1.00;;;;;;5149876;27;20340;-77
2023/05/17 03:41:07;;;;;;;1999.90;999.90;;;8.70;1.00;;;;;;5153900;27;20052;-76
2023/05/17 03:43:33;;;;;;;1999.90;999.90;;;8.90;1.00;;;;;;5153893;27;20045;-76
2023/05/17 03:45:59;;;;;;;1669.65;560.85;;;8.60;1.00;;;;;;5153426;27;20043;-76
2023/05/17 03:48:24;;;;;;;1999.90;999.90;;;8.60;1.00;;;;;;5153291;27;20107;-75
2023/05/17 03:50:50;;;;;;;1999.90;604.17;;;8.50;1.00;;;;;;5151702;27;20039;-76
2023/05/17 03:53:16;;;;;;;1999.90;999.90;;;9.20;1.00;;;;;;5151754;27;20435;-75
2023/05/17 03:55:42;;;;;;;1999.90;999.90;;;8.40;1.00;;;;;;5135705;27;20074;-76
2023/05/17 03:58:07;;;;;;;1999.90;628.10;;;8.60;1.00;;;;;;5153309;27;20049;-75
2023/05/17 04:00:33;;;;;;;1999.90;999.90;;;8.40;1.00;;;;;;5130116;28;20544;-75
2023/05/17 04:02:59;;;;;;;1999.90;427.15;;;8.40;1.00;;;;;;5141159;27;20494;-76
2023/05/17 04:05:25;;;;;;;1999.90;999.90;;;8.40;1.00;;;;;;5130211;27;20120;-75
2023/05/17 04:07:51;;;;;;;1999.90;999.90;;;9.20;1.00;;;;;;5149448;27;20050;-75
2023/05/17 04:10:17;;;;;;;1999.90;611.25;;;8.90;1.00;;;;;;5148253;27;20412;-75
2023/05/17 04:12:42;;;;;;;1999.90;809.47;;;8.00;1.00;;;;;;5148879;27;20082;-75
2023/05/17 04:15:08;;;;;;;1999.90;999.90;;;8.00;1.00;;;;;;5127542;27;20406;-76
2023/05/17 04:17:35;;;;;;;1314.20;119.45;;;8.00;1.00;;;;;;5137600;27;20043;-75
2023/05/17 04:20:01;;;;;;;1744.25;775.75;;;8.50;1.00;;;;;;5104366;27;20042;-76
2023/05/17 04:22:26;;;;;;;1999.90;608.85;;;8.30;1.00;;;;;;5146800;27;20035;-76
2023/05/17 04:24:52;;;;;;;1810.55;783.65;;;8.40;1.00;;;;;;5147744;27;20096;-75
2023/05/17 04:27:18;;;;;;;1999.90;608.08;;;8.50;1.00;;;;;;5149185;27;20491;-76
2023/05/17 04:29:43;;;;;;;1999.90;806.30;;;9.40;1.00;;;;;;5151041;27;20043;-75
2023/05/17 04:32:09;;;;;;;1999.90;999.90;;;8.70;1.00;;;;;;5150246;27;20043;-75
2023/05/17 04:34:35;;;;;;;1982.15;180.35;;;8.80;1.00;;;;;;5146397;27;20047;-75
2023/05/17 04:37:01;;;;;;;1999.90;647.03;;;8.90;1.00;;;;;;5124335;27;20048;-76
2023/05/17 04:39:27;;;;;;;1999.90;217.05;;;9.00;1.00;;;;;;5138621;27;20110;-76
2023/05/17 04:41:52;;;;;;;1999.90;638.20;;;9.10;1.00;;;;;;5132596;27;20172;-75
2023/05/17 04:44:18;;;;;;;1999.90;654.70;;;9.10;1.00;;;;;;5152513;27;20081;-76
2023/05/17 04:46:44;;;;;;;1999.90;646.40;;;9.20;1.00;;;;;;5150701;27;20050;-77
2023/05/17 04:49:10;;;;;;;1999.90;999.90;;;9.30;1.00;;;;;;5124979;28;20060;-75
2023/05/17 04:51:36;;;;;;;1999.90;999.90;;;9.40;1.00;;;;;;5100438;28;20082;-76
2023/05/17 04:54:05;;;;;;;1999.90;999.90;;;9.40;1.00;;;;;;5118637;28;20131;-75
2023/05/17 04:56:31;;;;;;;1999.90;999.90;;;9.50;1.00;;;;;;5130744;27;20484;-75
2023/05/17 04:58:57;;;;;;;1901.95;596.20;;;9.50;1.00;;;;;;5133467;27;20497;-75
2023/05/17 05:01:23;;;;;;;1999.90;813.35;;;9.80;1.00;;;;;;5130026;27;20135;-75
2023/05/17 05:03:48;;;;;;;1999.90;638.75;;;9.50;1.00;;;;;;5125572;27;20035;-75
2023/05/17 05:06:15;;;;;;;1999.90;342.25;;;9.40;1.00;;;;;;5134828;27;20084;-76
2023/05/17 05:08:40;;;;;;;1999.90;603.42;;;9.40;1.00;;;;;;5118941;27;20044;-76
2023/05/17 05:11:06;;;;;;;1999.90;999.90;;;9.40;1.00;;;;;;5134477;27;20043;-75
2023/05/17 05:13:32;;;;;;;1999.90;380.98;;;9.50;1.00;;;;;;5106596;28;20036;-75
2023/05/17 05:15:58;;;;;;;1999.90;704.25;;;9.50;1.00;;;;;;5128039;27;20058;-76
2023/05/17 05:18:23;;;;;;;1999.90;390.13;;;9.60;1.00;;;;;;5129498;27;20487;-76
2023/05/17 05:20:49;;;;;;;1999.90;426.85;;;9.70;1.00;;;;;;5134928;27;20043;-76
2023/05/17 05:23:17;;;;;;;1999.90;813.40;;;10.00;1.00;;;;;;5129419;27;20488;-76
2023/05/17 05:25:43;;;;;;;1999.90;999.90;;;9.90;1.00;;;;;;5132951;27;20495;-76
2023/05/17 05:28:10;;;;;;;1999.90;999.90;;;10.00;1.00;;;;;;5132697;27;20039;-76
2023/05/17 05:30:35;;;;;;;1999.90;628.50;;;10.10;1.00;;;;;;5128488;27;20489;-76
2023/05/17 05:33:02;;;;;;;1999.90;999.90;;;10.20;1.00;;;;;;5126254;27;20048;-76
2023/05/17 05:35:30;;;;;;;1999.90;999.90;;;10.20;1.00;;;;;;5131869;27;20083;-76
2023/05/17 05:37:57;;;;;;;1999.90;999.90;;;10.30;1.00;;;;;;5128720;27;20088;-75
2023/05/17 05:40:22;;;;;;;1999.90;633.05;;;10.40;1.00;;;;;;5126886;27;20399;-75
2023/05/17 05:42:48;;;;;;;1999.90;999.90;;;10.40;1.00;;;;;;5132772;27;20047;-75
2023/05/17 05:45:14;;;;;;;1999.90;822.28;;;10.60;1.00;;;;;;5114124;27;20050;-75
2023/05/17 05:47:40;;;;;;;1999.90;799.72;;;10.70;1.00;;;;;;5113488;28;20047;-75
2023/05/17 05:50:07;;;;;;;1999.90;636.15;;;10.90;1.00;;;;;;5140437;27;20058;-75
2023/05/17 05:52:33;;;;;;;1999.90;223.68;;;10.80;1.00;;;;;;5132091;27;20039;-75
2023/05/17 05:54:58;;;;;;;1999.90;823.65;;;11.00;1.00;;;;;;5133705;27;20043;-75
2023/05/17 05:57:24;;;;;;;1999.90;999.90;;;11.10;1.00;;;;;;5104999;27;20051;-75
2023/05/17 05:59:50;;;;;;;1999.90;844.55;;;11.20;1.00;;;;;;5136998;27;20055;-75
2023/05/17 06:02:16;;;;;;;1999.90;687.15;;;11.20;1.00;;;;;;5127063;27;20049;-75
2023/05/17 06:04:42;;;;;;;1999.90;999.90;;;11.50;1.00;;;;;;5134822;27;20061;-75
2023/05/17 06:07:07;;;;;;;1999.90;623.97;;;11.30;1.00;;;;;;5152175;27;20047;-74
2023/05/17 06:09:33;;;;;;;1999.90;999.90;;;11.40;1.00;;;;;;5154859;27;20241;-75
2023/05/17 06:12:00;;;;;;;1999.90;181.70;;;11.40;1.00;;;;;;5153524;27;20490;-76
2023/05/17 06:14:26;;;;;;;1999.90;999.90;;;11.50;1.00;;;;;;5134454;27;20117;-75
2023/05/17 06:16:51;;;;;;;1999.90;999.90;;;11.50;1.00;;;;;;5141686;27;20563;-75
2023/05/17 06:19:18;;;;;;;1999.90;634.10;;;11.60;1.00;;;;;;5115163;27;20122;-75
2023/05/17 06:21:44;;;;;;;1999.90;999.90;;;11.70;1.00;;;;;;5116713;27;20039;-75
2023/05/17 06:24:10;;;;;;;1999.90;999.90;;;11.80;1.00;;;;;;5103780;27;20059;-74
2023/05/17 06:26:36;;;;;;;1999.90;783.47;;;11.80;1.00;;;;;;5153601;27;20054;-75
2023/05/17 06:29:02;;;;;;;1999.90;184.10;;;11.90;1.00;;;;;;5155055;27;20043;-75
2023/05/17 06:31:28;;;;;;;1999.90;999.90;;;12.10;1.00;;;;;;5155052;27;20171;-74
2023/05/17 06:33:54;;;;;;;1999.90;999.90;;;12.20;1.00;;;;;;5153913;27;20561;-77
2023/05/17 06:36:19;;;;;;;1999.90;999.90;;;12.40;1.00;;;;;;5145896;27;20049;-75
2023/05/17 06:38:45;;;;;;;1999.90;705.33;;;12.50;1.00;;;;;;5140010;27;20051;-75
2023/05/17 06:41:11;;;;;;;1999.90;814.30;;;12.50;1.00;;;;;;5155425;27;20125;-75
2023/05/17 06:43:36;;;;;;;1999.90;586.90;;;12.40;1.00;;;;;;5152509;27;20047;-75
2023/05/17 06:46:02;;;;;;;1999.90;999.90;;;12.30;1.00;;;;;;5134234;27;20122;-75
2023/05/17 06:48:28;;;;;;;1999.90;999.90;;;12.30;1.00;;;;;;5153979;27;20394;-76
2023/05/17 06:50:53;;;;;;;1999.90;999.90;;;12.40;1.00;;;;;;5130411;27;20043;-75
2023/05/17 06:53:19;;;;;;;1999.90;999.90;;;12.50;1.00;;;;;;5144043;27;20119;-75
2023/05/17 06:55:45;;;;;;;1999.90;999.90;;;12.70;1.00;;;;;;5154947;27;20106;-75
2023/05/17 06:58:11;;;;;;;1999.90;999.90;;;12.80;1.00;;;;;;5152151;27;20426;-74
2023/05/17 07:00:36;;;;;;;1999.90;999.90;;;12.80;1.00;;;;;;5134294;27;20125;-74
2023/05/17 07:03:02;;;;;;;1999.90;999.90;;;12.60;1.00;;;;;;5154097;27;20068;-74
2023/05/17 07:05:29;;;;;;;1999.90;999.90;;;12.60;1.00;;;;;;5154158;27;20103;-74
2023/05/17 07:07:56;;;;;;;1999.90;999.90;;;12.60;1.00;;;;;;5145221;27;20119;-74
2023/05/17 07:10:22;;;;;;;1999.90;999.90;;;12.60;1.00;;;;;;5135468;27;20046;-74
2023/05/17 07:12:48;;;;;;;1999.90;999.90;;;12.60;1.00;;;;;;5115096;27;20399;-74
2023/05/17 07:15:13;;;;;;;1999.90;999.90;;;12.60;1.00;;;;;;5098642;27;20484;-75
2023/05/17 07:17:39;;;;;;;1999.90;999.90;;;12.60;1.00;;;;;;5139839;27;20481;-75
2023/05/17 07:20:05;;;;;;;1999.90;999.90;;;12.70;1.00;;;;;;5146982;27;20035;-75
2023/05/17 07:22:31;;;;;;;1999.90;999.90;;;12.80;1.00;;;;;;5147481;27;20102;-73
2023/05/17 07:24:57;;;;;;;1999.90;999.90;;;12.80;1.00;;;;;;5136114;27;20042;-74
2023/05/17 07:27:22;;;;;;;1999.90;999.90;;;13.00;1.00;;;;;;5135244;27;20043;-75
2023/05/17 07:29:48;;;;;;;1999.90;999.90;;;13.20;1.00;;;;;;5151311;27;20034;-75
2023/05/17 07:32:14;;;;;;;1999.90;999.90;;;13.30;1.00;;;;;;5151738;27;20495;-77
2023/05/17 07:34:40;;;;;;;1999.90;999.90;;;13.40;1.00;;;;;;5153827;27;20105;-74
2023/05/17 07:37:06;;;;;;;1999.90;999.90;;;13.40;1.00;;;;;;5141991;27;20130;-75
2023/05/17 07:39:32;;;;;;;1999.90;999.90;;;13.40;1.00;;;;;;5132189;27;20035;-75
2023/05/17 07:41:57;;;;;;;1999.90;999.90;;;13.40;1.00;;;;;;5129319;27;20297;-74
2023/05/17 07:44:23;;;;;;;1999.90;999.90;;;13.60;1.00;;;;;;5153578;27;20042;-74
2023/05/17 07:46:49;;;;;;;1999.90;999.90;;;13.90;1.00;;;;;;5152363;27;20513;-75
2023/05/17 07:49:14;;;;;;;1999.90;999.90;;;14.30;1.00;;;;;;5153542;27;20065;-74
2023/05/17 07:51:40;;;;;;;1999.90;999.90;;;14.50;1.00;;;;;;5153063;27;20046;-75
2023/05/17 07:54:06;;;;;;;1999.90;999.90;;;14.50;1.00;;;;;;5152478;27;20051;-75
2023/05/17 07:56:32;;;;;;;1999.90;999.90;;;14.40;99.90;;;;;;5152147;27;20501;-74
2023/05/17 07:58:58;;;;;;;1999.90;999.90;;;14.20;99.90;;;;;;5151849;27;20375;-75
2023/05/17 08:01:25;;;;;;;1999.90;999.90;;;14.00;99.90;;;;;;5145699;27;20035;-75
2023/05/17 08:03:50;;;;;;;1999.90;999.90;;;13.90;99.90;;;;;;5133006;28;20047;-75
2023/05/17 08:06:16;;;;;;;1999.90;999.90;;;13.80;99.90;;;;;;5133287;28;20443;-75
2023/05/17 08:08:42;;;;;;;1999.90;999.90;;;13.70;99.90;;;;;;5131734;28;20035;-75
2023/05/17 08:11:10;;;;;;;1999.90;999.90;;;13.70;1.00;;;;;;5136697;27;20078;-75
2023/05/17 08:13:36;;;;;;;1999.90;999.90;;;14.00;1.00;;;;;;5132813;27;20078;-75
2023/05/17 08:16:02;;;;;;;1999.90;999.90;;;14.60;99.90;;;;;;5135212;27;20559;-75
2023/05/17 08:18:31;;;;;;;1999.90;999.90;;;15.10;99.90;;;;;;5153280;27;20039;-75
2023/05/17 08:20:57;;;;;;;1999.90;999.90;;;15.40;99.90;;;;;;5153067;27;20051;-78
2023/05/17 08:23:23;;;;;;;1999.90;999.90;;;15.60;99.90;;;;;;5150138;27;20389;-75
2023/05/17 08:25:48;;;;;;;1999.90;999.90;;;15.80;99.90;;;;;;5151180;27;20118;-75
2023/05/17 08:28:14;;;;;;;1999.90;999.90;;;15.80;99.90;;;;;;5142815;27;20039;-75
2023/05/17 08:30:40;;;;;;;1999.90;999.90;;;15.90;99.90;;;;;;5098769;27;20051;-75
2023/05/17 08:33:08;;;;;;;1999.90;999.90;;;15.80;99.90;;;;;;5150805;27;20125;-75
2023/05/17 08:35:35;;;;;;;1999.90;999.90;;;15.80;99.90;;;;;;5156485;27;20051;-75
2023/05/17 08:38:01;;;;;;;1999.90;999.90;;;15.70;99.90;;;;;;5149137;27;20038;-75
2023/05/17 08:40:27;;;;;;;1999.90;999.90;;;15.70;99.90;;;;;;5155335;27;20463;-75
2023/05/17 08:42:53;;;;;;;1999.90;999.90;;;15.80;99.90;;;;;;5139111;27;20046;-75
2023/05/17 08:45:20;;;;;;;1999.90;999.90;;;15.80;99.90;;;;;;5156753;27;20035;-75
2023/05/17 08:47:47;;;;;;;1999.90;999.90;;;16.30;99.90;;;;;;5138007;27;20420;-75
2023/05/17 08:50:13;;;;;;;1999.90;999.90;;;16.90;99.90;;;;;;5142218;27;20055;-76
2023/05/17 08:52:45;;;;;;;1999.90;999.90;;;16.90;99.90;;;;;;5116896;27;20822;-75
2023/05/17 08:55:11;;;;;;;1999.90;999.90;;;16.90;99.90;;;;;;5141596;27;20054;-75
2023/05/17 08:57:38;;;;;;;1999.90;999.90;;;16.70;99.90;;;;;;5121155;27;20096;-75
2023/05/17 09:00:11;;;;;;;1999.90;999.90;;;16.30;99.90;;;;;;5140365;27;20087;-75
2023/05/17 09:02:38;;;;;;;1999.90;824.58;;;16.20;99.90;;;;;;5135945;27;20047;-75
2023/05/17 09:05:05;;;;;;;1999.90;999.90;;;15.90;99.90;;;;;;5136439;27;20521;-75
2023/05/17 09:07:31;;;;;;;1999.90;956.42;;;15.70;99.90;;;;;;5131593;27;20090;-76
2023/05/17 09:09:57;;;;;;;1999.90;935.28;;;15.50;99.90;;;;;;5118056;27;20054;-75
2023/05/17 09:12:23;;;;;;;1999.90;974.25;;;15.30;99.90;;;;;;5133338;27;20047;-78
2023/05/17 09:14:49;;;;;;;1999.90;762.83;;;15.20;99.90;;;;;;5138668;27;20049;-75
2023/05/17 09:17:19;;;;;;;1999.90;999.90;;;15.20;99.90;;;;;;5145528;27;20039;-76
2023/05/17 09:19:46;;;;;;;1999.90;999.90;;;15.30;99.90;;;;;;5156161;27;20039;-76
2023/05/17 09:22:19;;;;;;;1999.90;999.90;;;15.90;99.90;;;;;;5156705;27;20058;-76
2023/05/17 09:24:45;;;;;;;1999.90;999.90;;;16.60;99.90;;;;;;5155174;27;20039;-76
2023/05/17 09:27:16;;;;;;;1999.90;999.90;;;16.90;99.90;;;;;;5155819;27;20058;-76
2023/05/17 09:29:44;;;;;;;1999.90;999.90;;;16.80;99.90;;;;;;5137774;27;20469;-76
2023/05/17 09:32:19;;;;;;;1679.15;623.67;;;16.50;99.90;;;;;;5129933;27;20121;-76
2023/05/17 09:34:49;;;;;;;1876.15;804.60;;;16.00;99.90;;;;;;5137837;27;20042;-75
2023/05/17 09:37:17;;;;;;;1999.90;999.90;;;15.60;99.90;;;;;;5105010;27;20039;-75
2023/05/17 09:39:44;;;;;;;1999.90;999.90;;;15.50;99.90;;;;;;5116589;27;20043;-75
2023/05/17 09:42:11;;;;;;;1999.90;999.90;;;15.80;99.90;;;;;;5106395;27;20103;-75
2023/05/17 09:44:52;;;;;;;1999.90;999.90;;;17.00;99.90;;;;;;5152618;27;20463;-76
2023/05/17 09:47:25;;;;;;;1999.90;999.90;;;19.10;99.90;;;;;;5142449;27;20487;-75
2023/05/17 09:49:51;;;;;;;1999.90;999.90;;;20.40;99.90;;;;;;5153770;27;20086;-74
2023/05/17 09:52:19;;;;;;;1999.90;999.90;;;20.50;99.90;;;;;;5153696;27;20039;-78
2023/05/17 09:54:56;;;;;;;1999.90;999.90;;;20.00;99.90;;;;;;5136465;27;20483;-75
2023/05/17 09:57:24;;;;;;;1999.90;999.90;;;19.50;99.90;;;;;;5139859;27;20039;-75
2023/05/17 09:59:50;;;;;;;1999.90;999.90;;;19.30;99.90;;;;;;5154521;27;20034;-75
2023/05/17 10:02:21;;;;;;;1999.90;999.90;;;19.00;99.90;;;;;;5153310;27;20121;-76
2023/05/17 10:04:52;;;;;;;1999.90;999.90;;;18.70;99.90;;;;;;5155575;27;20500;-74
2023/05/17 10:07:19;;;;;;;1999.90;999.90;;;18.30;99.90;;;;;;5122466;27;20055;-76
2023/05/17 10:09:52;;;;;;;1999.90;999.90;;;18.10;99.90;;;;;;5139804;27;20030;-75
2023/05/17 10:12:21;;;;;;;1999.90;999.90;;;17.90;99.90;;;;;;5153434;27;20490;-75
2023/05/17 10:14:47;;;;;;;1999.90;999.90;;;18.00;99.90;;;;;;5154089;27;20410;-74
2023/05/17 10:17:14;;;;;;;1999.90;999.90;;;18.50;99.90;;;;;;5151730;27;20554;-74
2023/05/17 10:19:40;;;;;;;1999.90;999.90;;;19.00;99.90;;;;;;5155179;27;20053;-74
2023/05/17 10:22:06;;;;;;;1999.90;999.90;;;19.80;99.90;;;;;;5155024;27;20397;-74
2023/05/17 10:24:35;;;;;;;1999.90;999.90;;;20.60;99.90;;;;;;5153407;27;20042;-75
2023/05/17 10:27:02;;;;;;;1999.90;999.90;;;21.00;99.90;;;;;;5152893;27;20047;-75
2023/05/17 10:29:30;;;;;;;1999.90;999.90;;;21.30;99.90;;;;;;5136667;27;20041;-75
2023/05/17 10:31:57;;;;;;;1999.90;999.90;;;22.10;99.90;;;;;;5154179;27;20081;-75
2023/05/17 10:34:26;;;;;;;1999.90;999.90;;;23.00;99.90;;;;;;5155193;27;20039;-75
2023/05/17 10:36:52;;;;;;;1999.90;999.90;;;22.70;99.90;;;;;;5151163;27;20109;-74
2023/05/17 10:39:20;;;;;;;1999.90;999.90;;;22.00;99.90;;;;;;5133334;27;20043;-74
2023/05/17 10:41:51;;;;;;;1999.90;999.90;;;21.40;99.90;;;;;;5141135;27;20042;-74
2023/05/17 10:44:17;;;;;;;1999.90;999.90;;;21.70;99.90;;;;;;5147368;27;20083;-74
2023/05/17 10:46:56;;;;;;;1999.90;999.90;;;21.40;99.90;;;;;;5143713;27;20050;-75
2023/05/17 10:49:30;;;;;;;1999.90;999.90;;;20.80;99.90;;;;;;5144599;27;20055;-76
2023/05/17 10:52:18;;;;;;;1999.90;999.90;;;20.80;99.90;;;;;;5148088;27;20034;-75
2023/05/17 10:54:46;;;;;;;1999.90;999.90;;;20.90;99.90;;;;;;5148137;27;20038;-74
2023/05/17 10:57:33;;;;;;;1999.90;999.90;;;20.90;99.90;;;;;;5148168;27;20050;-76
2023/05/17 11:00:02;;;;;;;1999.90;999.90;;;20.90;99.90;;;;;;5148628;27;20043;-75
2023/05/17 11:02:30;;;;;;;1999.90;999.90;;;21.30;99.90;;;;;;5149694;27;20127;-75
2023/05/17 11:04:56;;;;;;;1999.90;999.90;;;21.20;99.90;;;;;;5146266;27;20050;-73
2023/05/17 11:07:28;;;;;;;1999.90;999.90;;;20.70;99.90;;;;;;5145889;27;20118;-75
2023/05/17 11:10:05;;;;;;;1999.90;999.90;;;20.50;99.90;;;;;;5149468;27;20084;-76
2023/05/17 11:12:34;;;;;;;1999.90;999.90;;;21.30;99.90;;;;;;5147615;27;20492;-75
2023/05/17 11:15:07;;;;;;;1999.90;999.90;;;22.30;99.90;;;;;;5145112;27;20058;-75
2023/05/17 11:17:34;;;;;;;1999.90;999.90;;;22.60;99.90;;;;;;5143206;27;20043;-75
2023/05/17 11:20:01;;;;;;;1999.90;999.90;;;22.20;99.90;;;;;;5147116;27;20452;-75
2023/05/17 11:22:35;;;;;;;1999.90;999.90;;;21.90;99.90;;;;;;5123650;27;20050;-75
2023/05/17 11:25:07;;;;;;;1999.90;999.90;;;22.10;99.90;;;;;;5146735;27;20066;-77
2023/05/17 11:27:45;;;;;;;1999.90;999.90;;;23.20;99.90;;;;;;5127146;27;20043;-76
2023/05/17 11:30:27;;;;;;;1999.90;999.90;;;24.10;99.90;;;;;;5129704;27;20087;-76
2023/05/17 11:33:04;;;;;;;1999.90;999.90;;;24.40;99.90;;;;;;5127978;27;20505;-77
2023/05/17 11:35:35;;;;;;;1999.90;999.90;;;24.20;99.90;;;;;;5151611;27;20046;-75
2023/05/17 11:38:22;;;;;;;1999.90;999.90;;;23.60;99.90;;;;;;5123712;27;20061;-76
2023/05/17 11:40:55;;;;;;;1999.90;999.90;;;22.60;99.90;;;;;;5146864;27;20050;-76
2023/05/17 11:43:27;;;;;;;1999.90;999.90;;;22.00;99.90;;;;;;5129450;27;20942;-78
2023/05/17 11:46:00;;;;;;;1999.90;999.90;;;22.00;99.90;;;;;;5127183;27;20103;-76
2023/05/17 11:48:26;;;;;;;1999.90;999.90;;;22.60;99.90;;;;;;5144386;27;20058;-77
2023/05/17 11:50:54;;;;;;;1999.90;999.90;;;23.20;99.90;;;;;;5148492;27;20072;-77
2023/05/17 11:53:20;;;;;;;1999.90;999.90;;;23.20;99.90;;;;;;5147586;27;20119;-76
2023/05/17 11:55:50;;;;;;;1999.90;999.90;;;22.50;99.90;;;;;;5130481;27;20042;-76
2023/05/17 11:58:18;;;;;;;1999.90;999.90;;;21.80;99.90;;;;;;5144613;27;20030;-76
2023/05/17 12:00:44;;;;;;;1999.90;999.90;;;21.10;99.90;;;;;;5148567;27;20050;-76
2023/05/17 12:03:19;;;;;;;1999.90;999.90;;;20.70;99.90;;;;;;5145285;27;20397;-74
2023/05/17 12:05:47;;;;;;;1999.90;999.90;;;21.00;99.90;;;;;;5131800;27;20104;-75
2023/05/17 12:08:15;;;;;;;1999.90;999.90;;;21.30;99.90;;;;;;5148385;27;20122;-75
2023/05/17 12:10:46;;;;;;;1999.90;999.90;;;21.40;99.90;;;;;;5153249;27;20134;-75